createdAt,value
2023-07-27T00:00:33.523Z,4.80
2023-07-27T00:03:00.370Z,5.20
2023-07-27T00:05:27.187Z,5.03
2023-07-27T00:07:53.947Z,4.50
2023-07-27T00:10:21.560Z,5.17
2023-07-27T00:12:48.327Z,4.67
2023-07-27T00:15:15.099Z,4.87
2023-07-27T00:17:41.872Z,5.27
2023-07-27T00:20:08.903Z,5.53
2023-07-27T00:22:35.656Z,5.50
2023-07-27T00:25:02.416Z,5.47
2023-07-27T00:27:29.149Z,5.07
2023-07-27T00:29:55.963Z,5.73
2023-07-27T00:32:23.366Z,6.80
2023-07-27T00:34:53.412Z,7.10
2023-07-27T00:37:20.191Z,8.17
2023-07-27T00:39:47.218Z,7.87
2023-07-27T00:42:13.966Z,8.10
2023-07-27T00:44:40.721Z,7.07
2023-07-27T00:47:07.864Z,6.90
2023-07-27T00:49:35.490Z,7.40
2023-07-27T00:52:07.198Z,8.77
2023-07-27T00:54:34.675Z,7.80
2023-07-27T00:57:02.038Z,8.20
2023-07-27T00:59:30.125Z,9.63
2023-07-27T01:01:57.492Z,10.43
2023-07-27T01:04:24.354Z,9.73
2023-07-27T01:06:51.480Z,8.20
2023-07-27T01:09:18.334Z,7.40
2023-07-27T01:12:01.099Z,7.33
2023-07-27T01:14:27.814Z,8.07
2023-07-27T01:17:00.708Z,8.27
2023-07-27T01:19:39.450Z,7.73
2023-07-27T01:22:32.147Z,7.23
2023-07-27T01:25:17.469Z,9.10
2023-07-27T01:28:32.400Z,7.87
2023-07-27T01:31:10.994Z,8.87
2023-07-27T01:33:44.593Z,8.83
2023-07-27T01:36:13.958Z,8.87
2023-07-27T01:38:46.396Z,8.50
2023-07-27T01:41:14.226Z,10.37
2023-07-27T01:43:43.006Z,11.03
2023-07-27T01:46:12.339Z,10.53
2023-07-27T01:48:42.558Z,11.33
2023-07-27T01:51:10.714Z,11.70
2023-07-27T01:53:40.732Z,11.03
2023-07-27T01:56:08.669Z,11.70
2023-07-27T01:58:37.605Z,11.33
2023-07-27T02:01:05.310Z,11.50
2023-07-27T02:03:37.062Z,12.07
2023-07-27T02:06:03.920Z,12.77
2023-07-27T02:08:30.724Z,12.17
2023-07-27T02:11:04.456Z,11.70
2023-07-27T02:13:52.677Z,12.03
2023-07-27T02:16:46.916Z,11.40
2023-07-27T02:19:16.672Z,11.00
2023-07-27T02:21:46.348Z,12.00
2023-07-27T02:24:14.004Z,12.00
2023-07-27T02:26:42.925Z,11.60
2023-07-27T02:29:09.729Z,11.37
2023-07-27T02:31:36.566Z,11.17
2023-07-27T02:34:03.375Z,10.83
2023-07-27T02:36:30.107Z,10.20
2023-07-27T02:38:57.693Z,10.37
2023-07-27T02:41:25.803Z,10.87
2023-07-27T02:43:52.766Z,11.70
2023-07-27T02:46:19.505Z,11.23
2023-07-27T02:48:46.262Z,11.83
2023-07-27T02:51:12.959Z,12.30
2023-07-27T02:53:39.697Z,10.83
2023-07-27T02:56:07.101Z,11.37
2023-07-27T02:58:33.834Z,11.53
2023-07-27T03:01:03.599Z,10.60
2023-07-27T03:03:30.600Z,11.03
2023-07-27T03:06:02.353Z,11.90
2023-07-27T03:08:30.207Z,12.67
2023-07-27T03:11:04.806Z,12.40
2023-07-27T03:13:32.628Z,11.97
2023-07-27T03:16:01.204Z,12.13
2023-07-27T03:18:29.527Z,11.73
2023-07-27T03:20:56.278Z,11.97
2023-07-27T03:23:23.100Z,15.33
2023-07-27T03:25:49.850Z,14.37
2023-07-27T03:28:16.563Z,14.40
2023-07-27T03:30:43.643Z,13.53
2023-07-27T03:33:10.431Z,14.80
2023-07-27T03:35:37.361Z,15.20
2023-07-27T03:38:04.232Z,15.40
2023-07-27T03:40:30.970Z,15.10
2023-07-27T03:42:57.695Z,15.13
2023-07-27T03:45:24.406Z,13.50
2023-07-27T03:47:52.286Z,14.77
2023-07-27T03:50:18.991Z,15.40
2023-07-27T03:52:46.071Z,15.63
2023-07-27T03:55:13.586Z,14.37
2023-07-27T03:57:40.953Z,15.33
2023-07-27T04:00:08.786Z,15.13
2023-07-27T04:02:35.615Z,14.40
2023-07-27T04:05:02.493Z,14.90
2023-07-27T04:07:29.198Z,14.97
2023-07-27T04:09:55.904Z,14.33
2023-07-27T04:12:22.672Z,14.97
2023-07-27T04:14:50.217Z,14.10
2023-07-27T04:17:17.187Z,14.47
2023-07-27T04:19:44.016Z,13.50
2023-07-27T04:22:10.837Z,13.90
2023-07-27T04:24:39.829Z,14.77
2023-07-27T04:27:06.609Z,13.43
2023-07-27T04:29:33.331Z,12.97
2023-07-27T04:32:00.166Z,14.00
2023-07-27T04:34:26.973Z,12.53
2023-07-27T04:36:53.968Z,12.03
2023-07-27T04:39:20.852Z,12.57
2023-07-27T04:41:47.759Z,12.70
2023-07-27T04:44:14.615Z,10.93
2023-07-27T04:46:41.415Z,12.07
2023-07-27T04:49:08.328Z,11.53
2023-07-27T04:51:35.264Z,11.27
2023-07-27T04:54:03.044Z,10.90
2023-07-27T04:56:29.841Z,10.60
2023-07-27T04:58:56.771Z,10.70
2023-07-27T05:01:24.118Z,10.20
2023-07-27T05:03:52.459Z,10.10
2023-07-27T05:06:19.405Z,10.40
2023-07-27T05:08:46.230Z,9.43
2023-07-27T05:11:13.294Z,9.60
2023-07-27T05:13:40.066Z,9.53
2023-07-27T05:16:06.933Z,8.57
2023-07-27T05:18:33.652Z,8.00
2023-07-27T05:21:00.598Z,7.50
2023-07-27T05:23:27.952Z,7.87
2023-07-27T05:25:54.730Z,8.13
2023-07-27T05:28:21.560Z,7.67
2023-07-27T05:30:48.402Z,8.07
2023-07-27T05:33:15.229Z,8.13
2023-07-27T05:35:41.977Z,8.17
2023-07-27T05:38:08.725Z,7.47
2023-07-27T05:40:38.483Z,7.70
2023-07-27T05:43:06.176Z,7.97
2023-07-27T05:45:33.126Z,7.70
2023-07-27T05:47:59.910Z,6.60
2023-07-27T05:50:26.734Z,6.80
2023-07-27T05:52:53.475Z,6.70
2023-07-27T05:55:20.317Z,6.43
2023-07-27T05:57:47.118Z,6.20
2023-07-27T06:00:14.242Z,5.90
2023-07-27T06:02:41.044Z,6.13
2023-07-27T06:05:08.281Z,6.00
2023-07-27T06:07:35.103Z,6.37
2023-07-27T06:10:01.934Z,6.20
2023-07-27T06:12:28.717Z,6.13
2023-07-27T06:14:55.417Z,6.40
2023-07-27T06:17:22.287Z,6.17
2023-07-27T06:19:49.064Z,6.33
2023-07-27T06:22:15.788Z,6.70
2023-07-27T06:24:42.677Z,6.70
2023-07-27T06:27:09.446Z,6.40
2023-07-27T06:29:36.189Z,6.47
2023-07-27T06:32:03.074Z,7.10
2023-07-27T06:34:29.836Z,6.80
2023-07-27T06:36:56.582Z,6.97
2023-07-27T06:39:23.472Z,7.10
2023-07-27T06:41:50.478Z,6.07
2023-07-27T06:44:17.642Z,6.63
2023-07-27T06:46:44.500Z,6.97
2023-07-27T06:49:11.960Z,6.80
2023-07-27T06:51:38.804Z,6.10
2023-07-27T06:54:05.734Z,7.13
2023-07-27T06:56:32.816Z,6.90
2023-07-27T06:59:00.488Z,6.60
2023-07-27T07:01:27.243Z,6.40
2023-07-27T07:03:54.388Z,6.97
2023-07-27T07:06:21.276Z,6.40
2023-07-27T07:08:48.842Z,6.20
2023-07-27T07:11:15.754Z,5.87
2023-07-27T07:13:42.523Z,6.13
2023-07-27T07:16:09.301Z,6.32
2023-07-27T07:18:36.148Z,5.57
2023-07-27T07:21:02.914Z,5.90
2023-07-27T07:23:29.606Z,5.77
2023-07-27T07:25:56.367Z,5.90
2023-07-27T07:28:24.525Z,6.27
2023-07-27T07:30:51.301Z,6.22
2023-07-27T07:33:18.105Z,6.68
2023-07-27T07:35:45.005Z,5.95
2023-07-27T07:38:11.687Z,6.13
2023-07-27T07:40:38.453Z,6.13
2023-07-27T07:43:06.696Z,5.67
2023-07-27T07:45:35.080Z,5.87
2023-07-27T07:48:01.912Z,6.73
2023-07-27T07:50:28.621Z,6.68
2023-07-27T07:52:56.431Z,6.97
2023-07-27T07:55:23.327Z,6.30
2023-07-27T07:57:50.121Z,6.60
2023-07-27T08:00:17.283Z,6.80
2023-07-27T08:02:44.104Z,6.25
2023-07-27T08:05:10.958Z,6.28
2023-07-27T08:07:37.682Z,6.30
2023-07-27T08:10:05.594Z,6.73
2023-07-27T08:12:32.754Z,6.90
2023-07-27T08:14:59.517Z,7.13
2023-07-27T08:19:57.069Z,7.05
2023-07-27T08:22:24.989Z,6.18
2023-07-27T08:24:53.040Z,6.80
2023-07-27T08:27:22.701Z,6.40
2023-07-27T08:29:49.424Z,6.22
2023-07-27T08:32:16.112Z,7.15
2023-07-27T08:34:42.791Z,5.90
2023-07-27T08:37:09.513Z,5.90
2023-07-27T08:39:36.255Z,6.60
2023-07-27T08:42:03.397Z,5.53
2023-07-27T08:44:30.310Z,6.40
2023-07-27T08:46:59.692Z,6.05
2023-07-27T08:49:27.125Z,6.00
2023-07-27T08:51:53.889Z,5.93
2023-07-27T08:54:21.842Z,5.68
2023-07-27T08:56:49.897Z,6.10
2023-07-27T08:59:16.702Z,6.00
2023-07-27T09:01:43.476Z,5.95
2023-07-27T09:04:10.249Z,5.65
2023-07-27T09:06:41.446Z,6.20
2023-07-27T09:09:26.593Z,5.63
2023-07-27T09:11:53.550Z,5.68
2023-07-27T09:14:20.872Z,6.50
2023-07-27T09:16:49.692Z,5.88
2023-07-27T09:19:20.196Z,6.03
2023-07-27T09:21:53.844Z,6.07
2023-07-27T09:24:24.192Z,6.30
2023-07-27T09:26:52.727Z,6.40
2023-07-27T09:29:21.787Z,6.00
2023-07-27T09:31:53.701Z,5.68
2023-07-27T09:34:21.495Z,5.80
2023-07-27T09:36:48.846Z,6.30
2023-07-27T09:39:18.431Z,6.60
2023-07-27T09:41:49.417Z,6.20
2023-07-27T09:44:17.423Z,5.72
2023-07-27T09:46:46.089Z,6.13
2023-07-27T09:49:14.344Z,5.75
2023-07-27T09:51:41.431Z,6.00
2023-07-27T09:54:08.904Z,5.97
2023-07-27T09:56:36.255Z,5.70
2023-07-27T09:59:03.116Z,5.72
2023-07-27T10:01:29.903Z,5.88
2023-07-27T10:03:59.720Z,5.32
2023-07-27T10:06:28.190Z,5.28
2023-07-27T10:08:55.871Z,5.00
2023-07-27T10:11:54.654Z,4.82
2023-07-27T10:14:21.547Z,4.88
2023-07-27T10:17:08.721Z,4.82
2023-07-27T10:19:47.101Z,4.90
2023-07-27T10:22:15.899Z,4.75
2023-07-27T10:24:52.591Z,5.13
2023-07-27T10:27:20.562Z,4.47
2023-07-27T10:30:09.476Z,3.95
2023-07-27T10:32:39.372Z,4.10
2023-07-27T10:35:09.507Z,4.40
2023-07-27T10:37:53.985Z,4.60
2023-07-27T10:40:31.712Z,4.75
2023-07-27T10:43:00.120Z,5.00
2023-07-27T10:45:28.531Z,4.75
2023-07-27T10:47:58.787Z,4.63
2023-07-27T10:50:25.696Z,4.82
2023-07-27T10:52:53.880Z,5.13
2023-07-27T10:55:21.267Z,3.75
2023-07-27T10:57:49.511Z,4.05
2023-07-27T11:00:16.421Z,2.92
2023-07-27T11:02:44.393Z,3.08
2023-07-27T11:05:13.821Z,3.53
2023-07-27T11:07:43.742Z,3.72
2023-07-27T11:10:12.162Z,4.15
2023-07-27T11:12:56.109Z,4.00
2023-07-27T11:15:29.374Z,4.75
2023-07-27T11:17:58.305Z,5.32
2023-07-27T11:20:26.922Z,5.05
2023-07-27T11:22:56.229Z,4.78
2023-07-27T11:25:24.177Z,4.80
2023-07-27T11:27:52.768Z,4.53
2023-07-27T11:30:22.820Z,4.30
2023-07-27T11:33:02.524Z,5.18
2023-07-27T11:35:29.979Z,4.88
2023-07-27T11:37:56.898Z,5.10
2023-07-27T11:40:24.384Z,4.30
2023-07-27T11:42:51.259Z,4.50
2023-07-27T11:45:18.489Z,4.53
2023-07-27T11:47:45.615Z,3.47
2023-07-27T11:50:15.681Z,3.55
2023-07-27T11:52:42.409Z,3.72
2023-07-27T11:55:09.602Z,3.25
2023-07-27T11:57:36.623Z,2.95
2023-07-27T12:00:05.033Z,3.25
2023-07-27T12:02:34.464Z,3.60
2023-07-27T12:05:02.145Z,2.97
2023-07-27T12:08:07.916Z,3.20
2023-07-27T12:10:30.487Z,3.20
2023-07-27T12:15:37.659Z,3.35
2023-07-27T12:18:06.614Z,3.10
2023-07-27T12:30:34.734Z,3.20
2023-07-27T12:33:01.511Z,3.60
2023-07-27T12:35:31.394Z,3.85
2023-07-27T12:43:01.763Z,3.53
2023-07-27T12:45:28.651Z,3.70
2023-07-27T12:47:55.858Z,3.80
2023-07-27T12:50:22.680Z,3.78
2023-07-27T12:52:50.532Z,4.00
2023-07-27T12:55:17.891Z,3.50
2023-07-27T12:57:45.586Z,4.03
2023-07-27T13:00:15.348Z,4.43
2023-07-27T13:02:42.371Z,4.53
2023-07-27T13:05:13.620Z,4.78
2023-07-27T13:07:41.911Z,3.85
2023-07-27T13:10:10.180Z,4.45
2023-07-27T13:12:37.798Z,4.82
2023-07-27T13:15:05.300Z,4.43
2023-07-27T13:17:32.534Z,4.85
2023-07-27T13:19:59.323Z,4.40
2023-07-27T13:22:26.134Z,4.60
2023-07-27T13:24:53.421Z,4.60
2023-07-27T13:27:20.152Z,4.50
2023-07-27T13:29:46.893Z,4.47
2023-07-27T13:32:13.631Z,4.57
2023-07-27T13:34:40.356Z,4.40
2023-07-27T13:37:07.960Z,4.10
2023-07-27T13:39:37.122Z,4.72
2023-07-27T13:42:04.141Z,4.47
2023-07-27T13:44:31.008Z,4.88
2023-07-27T13:46:57.779Z,4.05
2023-07-27T13:49:24.749Z,4.32
2023-07-27T13:51:51.763Z,4.82
2023-07-27T13:54:18.600Z,4.40
2023-07-27T13:56:45.408Z,4.35
2023-07-27T13:59:12.216Z,4.80
2023-07-27T14:01:38.988Z,4.50
2023-07-27T14:04:06.065Z,4.15
2023-07-27T14:06:32.840Z,4.30
2023-07-27T14:09:02.603Z,5.03
2023-07-27T14:11:32.685Z,4.55
2023-07-27T14:13:59.960Z,4.18
2023-07-27T14:16:26.838Z,4.45
2023-07-27T14:18:53.725Z,4.38
2023-07-27T14:21:20.593Z,3.92
2023-07-27T14:23:49.443Z,4.22
2023-07-27T14:28:47.211Z,4.20
2023-07-27T14:31:14.301Z,4.00
2023-07-27T14:33:41.630Z,4.07
2023-07-27T14:36:08.348Z,3.80
2023-07-27T14:38:35.281Z,3.92
2023-07-27T14:41:02.088Z,4.22
2023-07-27T14:43:28.827Z,4.10
2023-07-27T14:45:55.714Z,4.38
2023-07-27T14:48:22.564Z,4.75
2023-07-27T14:50:50.123Z,4.57
2023-07-27T14:53:16.984Z,4.60
2023-07-27T14:55:46.893Z,5.28
2023-07-27T15:00:51.778Z,5.10
2023-07-27T15:03:21.637Z,5.65
2023-07-27T15:05:49.858Z,5.50
2023-07-27T15:08:16.788Z,6.10
2023-07-27T15:10:46.565Z,5.90
2023-07-27T15:13:13.446Z,5.95
2023-07-27T15:15:40.264Z,5.47
2023-07-27T15:18:10.256Z,5.88
2023-07-27T15:20:41.471Z,5.53
2023-07-27T15:23:11.798Z,5.57
2023-07-27T15:25:38.544Z,5.85
2023-07-27T15:28:08.878Z,5.75
2023-07-27T15:30:35.725Z,5.38
2023-07-27T15:33:02.570Z,5.97
2023-07-27T15:35:35.109Z,5.45
2023-07-27T15:38:02.625Z,6.05
2023-07-27T15:40:29.432Z,5.70
2023-07-27T15:42:56.364Z,5.30
2023-07-27T15:45:23.329Z,5.72
2023-07-27T15:47:50.164Z,5.25
2023-07-27T15:50:17.175Z,5.60
2023-07-27T15:52:45.515Z,6.20
2023-07-27T15:55:12.488Z,5.18
2023-07-27T15:57:39.634Z,5.85
2023-07-27T16:00:07.093Z,5.70
2023-07-27T16:02:34.421Z,5.03
2023-07-27T16:05:02.830Z,5.70
2023-07-27T16:07:29.841Z,5.75
2023-07-27T16:10:00.338Z,6.25
2023-07-27T16:12:28.207Z,5.47
2023-07-27T16:14:55.199Z,5.13
2023-07-27T16:17:23.596Z,5.15
2023-07-27T16:19:50.384Z,5.65
2023-07-27T16:22:18.525Z,5.15
2023-07-27T16:24:52.506Z,5.38
2023-07-27T16:27:21.424Z,5.32
2023-07-27T16:29:48.730Z,7.40
2023-07-27T16:32:15.495Z,5.57
2023-07-27T16:34:42.270Z,5.43
2023-07-27T16:37:09.105Z,5.65
2023-07-27T16:39:35.978Z,5.68
2023-07-27T16:42:02.809Z,5.65
2023-07-27T16:44:31.294Z,4.20
2023-07-27T16:46:58.346Z,5.85
2023-07-27T16:49:25.159Z,5.95
2023-07-27T16:51:51.925Z,6.20
2023-07-27T16:54:18.702Z,5.38
2023-07-27T16:56:45.470Z,5.72
2023-07-27T16:59:12.434Z,5.10
2023-07-27T17:01:40.831Z,5.20
2023-07-27T17:04:07.675Z,4.07
2023-07-27T17:06:34.739Z,4.50
2023-07-27T17:09:01.699Z,5.47
2023-07-27T17:11:28.494Z,5.63
2023-07-27T17:13:55.213Z,5.28
2023-07-27T17:16:22.107Z,5.07
2023-07-27T17:18:51.593Z,5.10
2023-07-27T17:21:18.448Z,6.20
2023-07-27T17:23:45.382Z,5.53
2023-07-27T17:26:12.274Z,5.47
2023-07-27T17:28:39.151Z,5.00
2023-07-27T17:31:05.971Z,6.47
2023-07-27T17:33:33.444Z,5.75
2023-07-27T17:36:01.324Z,5.20
2023-07-27T17:38:29.770Z,6.00
2023-07-27T17:40:57.971Z,5.30
2023-07-27T17:43:25.527Z,5.80
2023-07-27T17:45:53.323Z,5.00
2023-07-27T17:48:22.748Z,6.00
2023-07-27T17:50:56.040Z,6.10
2023-07-27T17:53:27.389Z,6.85
2023-07-27T17:55:55.601Z,5.47
2023-07-27T17:58:22.545Z,6.40
2023-07-27T18:00:49.539Z,6.53
2023-07-27T18:03:16.729Z,7.25
2023-07-27T18:05:48.085Z,7.38
2023-07-27T18:08:15.904Z,6.18
2023-07-27T18:10:44.694Z,7.00
2023-07-27T18:13:12.694Z,7.20
2023-07-27T18:15:42.070Z,6.70
2023-07-27T18:18:08.981Z,6.35
2023-07-27T18:20:35.881Z,7.28
2023-07-27T18:23:02.671Z,6.60
2023-07-27T18:25:29.463Z,7.88
2023-07-27T18:27:56.398Z,7.43
2023-07-27T18:30:24.649Z,8.55
2023-07-27T18:32:55.707Z,7.43
2023-07-27T18:35:24.379Z,7.15
2023-07-27T18:37:51.300Z,7.15
2023-07-27T18:40:18.280Z,7.15
2023-07-27T18:42:46.501Z,8.10
2023-07-27T18:45:13.312Z,7.40
2023-07-27T18:47:40.537Z,7.13
2023-07-27T18:50:10.080Z,6.72
2023-07-27T18:52:37.258Z,7.30
2023-07-27T18:55:05.509Z,6.97
2023-07-27T18:57:32.358Z,6.43
2023-07-27T18:59:59.306Z,6.50
2023-07-27T19:02:26.059Z,5.55
2023-07-27T19:04:52.934Z,6.50
2023-07-27T19:07:19.793Z,7.75
2023-07-27T19:09:46.530Z,6.63
2023-07-27T19:12:13.554Z,7.00
2023-07-27T19:14:40.291Z,8.88
2023-07-27T19:17:07.129Z,6.32
2023-07-27T19:19:33.963Z,7.95
2023-07-27T19:22:00.814Z,7.75
2023-07-27T19:24:27.563Z,7.28
2023-07-27T19:26:54.617Z,7.03
2023-07-27T19:29:22.516Z,8.30
2023-07-27T19:31:53.204Z,8.63
2023-07-27T19:34:22.061Z,7.30
2023-07-27T19:36:49.412Z,8.25
2023-07-27T19:39:16.251Z,9.15
2023-07-27T19:41:44.767Z,9.35
2023-07-27T19:44:12.099Z,8.95
2023-07-27T19:46:39.346Z,9.27
2023-07-27T19:49:06.488Z,9.23
2023-07-27T19:51:34.167Z,7.20
2023-07-27T19:54:01.394Z,7.60
2023-07-27T19:56:28.628Z,8.90
2023-07-27T19:58:55.741Z,8.63
2023-07-27T20:01:23.377Z,8.27
2023-07-27T20:03:50.818Z,7.22
2023-07-27T20:06:19.207Z,7.05
2023-07-27T20:08:49.787Z,9.20
2023-07-27T20:11:17.577Z,7.57
2023-07-27T20:13:46.508Z,7.13
2023-07-27T20:16:13.816Z,7.65
2023-07-27T20:18:44.113Z,7.78
2023-07-27T20:21:11.122Z,7.28
2023-07-27T20:23:38.710Z,6.82
2023-07-27T20:26:05.574Z,6.85
2023-07-27T20:28:32.477Z,7.50
2023-07-27T20:30:59.288Z,7.30
2023-07-27T20:33:26.109Z,7.97
2023-07-27T20:35:56.857Z,8.63
2023-07-27T20:38:23.770Z,7.32
2023-07-27T20:40:50.676Z,8.15
2023-07-27T20:43:17.524Z,8.05
2023-07-27T20:45:44.217Z,10.30
2023-07-27T20:48:10.944Z,8.95
2023-07-27T20:50:40.822Z,8.95
2023-07-27T20:53:07.911Z,10.48
2023-07-27T20:55:34.710Z,9.10
2023-07-27T20:58:01.517Z,7.85
2023-07-27T21:00:28.771Z,9.52
2023-07-27T21:02:55.575Z,9.98
2023-07-27T21:05:22.326Z,9.82
2023-07-27T21:07:49.067Z,10.02
2023-07-27T21:10:15.866Z,10.52
2023-07-27T21:12:42.633Z,9.52
2023-07-27T21:15:09.875Z,10.10
2023-07-27T21:17:36.760Z,10.68
2023-07-27T21:20:04.332Z,10.27
2023-07-27T21:22:31.070Z,9.27
2023-07-27T21:24:57.779Z,10.15
2023-07-27T21:27:24.544Z,9.90
2023-07-27T21:29:51.301Z,10.10
2023-07-27T21:32:18.192Z,8.15
2023-07-27T21:34:44.914Z,10.30
2023-07-27T21:37:11.737Z,8.95
2023-07-27T21:39:38.467Z,9.60
2023-07-27T21:42:05.663Z,10.48
2023-07-27T21:44:32.543Z,10.55
2023-07-27T21:46:59.424Z,8.30
2023-07-27T21:49:26.192Z,10.07
2023-07-27T21:51:55.594Z,10.35
2023-07-27T21:54:22.353Z,9.30
2023-07-27T21:56:49.125Z,9.73
2023-07-27T21:59:15.821Z,8.25
2023-07-27T22:01:42.570Z,9.95
2023-07-27T22:04:09.475Z,10.63
2023-07-27T22:06:36.638Z,9.57
2023-07-27T22:09:04.639Z,10.25
2023-07-27T22:11:31.406Z,8.52
2023-07-27T22:13:58.144Z,8.30
2023-07-27T22:16:24.977Z,8.38
2023-07-27T22:18:51.756Z,6.90
2023-07-27T22:21:20.048Z,6.28
2023-07-27T22:23:46.809Z,6.85
2023-07-27T22:26:17.227Z,6.95
2023-07-27T22:28:43.943Z,6.65
2023-07-27T22:31:16.954Z,6.65
2023-07-27T22:33:43.741Z,5.95
2023-07-27T22:36:10.544Z,7.03
2023-07-27T22:38:37.327Z,6.03
2023-07-27T22:41:04.796Z,6.65
2023-07-27T22:43:31.773Z,6.05
2023-07-27T22:45:58.827Z,6.05
2023-07-27T22:48:26.160Z,6.80
2023-07-27T22:50:53.022Z,5.65
2023-07-27T22:53:19.869Z,5.32
2023-07-27T22:55:50.481Z,6.03
2023-07-27T22:58:18.127Z,6.63
2023-07-27T23:00:44.910Z,6.10
2023-07-27T23:03:11.698Z,5.93
2023-07-27T23:05:39.333Z,6.10
2023-07-27T23:08:08.223Z,6.78
2023-07-27T23:10:35.478Z,6.25
2023-07-27T23:13:02.329Z,5.95
2023-07-27T23:15:29.075Z,6.45
2023-07-27T23:17:55.838Z,6.88
2023-07-27T23:20:22.730Z,6.47
2023-07-27T23:22:49.515Z,7.60
2023-07-27T23:25:16.348Z,7.30
2023-07-27T23:27:43.070Z,8.35
2023-07-27T23:30:10.376Z,7.63
2023-07-27T23:32:37.225Z,7.80
2023-07-27T23:35:04.736Z,7.50
2023-07-27T23:37:31.469Z,8.00
2023-07-27T23:39:58.276Z,7.68
2023-07-27T23:42:26.429Z,7.40
2023-07-27T23:44:53.644Z,8.43
2023-07-27T23:47:20.384Z,7.60
2023-07-27T23:49:47.172Z,6.95
2023-07-27T23:52:14.011Z,7.32
2023-07-27T23:54:40.758Z,7.47
2023-07-27T23:57:07.559Z,7.20
2023-07-27T23:59:35.100Z,6.15
